• Join FlightAware (Why Join?)
  • Login
  • US Flag 
06:36PM EDT


 

Airport Tracker/Info


-or-


 

Live Flight TrackerFlight Track Log ✈ ASQ3850 ✈ 09-May-2013 ✈ KCLT - KEWR

Flight Track Log - Related Links

Times and Time Zones

All times are in EDT time to prevent confusion due to time zone crossing. See the ASQ3850 flight status page for this flight to view local times or setup timezone preferences in your user account.

Time Position Orientation Groundspeed Altitude Reporting Facility
EDT Latitude Longitude Course Direction KTS MPH feet Rate Location/Type
04:00PM 35.1886 -80.9358 30° Northeast 165 190 1,300  Level Atlanta Center
04:02PM 35.1211 -80.8978 155° Southeast 249 287 3,200 1,680 Climbing Atlanta Center
04:03PM 35.0919 -80.8278 117° Southeast 276 318 5,200 2,100 Climbing Atlanta Center
04:04PM 35.1456 -80.6030 29° Northeast  Level FlightAware Approximate
04:04PM 35.1022 -80.7383 82° East 273 314 7,300  Level Atlanta Center
04:05PM 35.2261 -80.5481 30° Northeast  Level FlightAware Approximate
04:05PM 35.1269 -80.6486 71° East 287 330 9,300  Level Atlanta Center
04:06PM 35.3057 -80.4912 30° Northeast  Level FlightAware Approximate
04:06PM 35.1767 -80.5653 54° Northeast 310 357 10,900  Level Atlanta Center
04:07PM 35.2267 -80.4869 52° Northeast 315 362 11,800 1,020 Climbing Atlanta Center
04:09PM 35.3458 -80.2928 53° Northeast 361 415 13,900 1,020 Climbing Washington Center
04:10PM 35.4106 -80.1869 53° Northeast 377 434 14,900 1,020 Climbing Washington Center
04:11PM 35.4528 -80.0644 67° East 383 441 16,000 1,020 Climbing Washington Center
04:12PM 35.4844 -79.9386 73° East 384 442 17,000 900 Climbing Washington Center
04:13PM 35.5158 -79.8206 72° East 389 448 17,800 960 Climbing Washington Center
04:14PM 35.5500 -79.6767 74° East 395 455 18,900 1,020 Climbing Washington Center
04:15PM 35.5833 -79.5558 71° East 400 460 19,900 960 Climbing Washington Center
04:16PM 35.6144 -79.4372 72° East 400 460 20,900 1,020 Climbing Washington Center
04:17PM 35.6714 -79.2867 65° Northeast 400 460 22,000 1,080 Climbing Washington Center
04:18PM 35.7411 -79.1825 50° Northeast 400 460 23,100 1,020 Climbing Washington Center
04:19PM 35.8350 -79.1122 31° Northeast 382 440 24,100 1,080 Climbing Washington Center
04:20PM 35.9289 -79.0447 30° Northeast 382 440 25,300 1,140 Climbing Washington Center
04:21PM 36.0228 -78.9769 30° Northeast 382 440 26,500 1,200 Climbing Washington Center
04:22PM 36.1122 -78.9061 33° Northeast 382 440 27,700 1,140 Climbing Washington Center
04:23PM 36.2039 -78.8406 30° Northeast 382 440 28,800 900 Climbing Washington Center
04:24PM 36.2806 -78.7819 32° Northeast 376 433 29,600 900 Climbing Washington Center
04:25PM 36.3697 -78.7183 30° Northeast 371 427 30,700 1,080 Climbing Washington Center
04:26PM 36.4592 -78.6497 32° Northeast 371 427 31,800 600 Climbing Washington Center
04:27PM 36.5486 -78.5808 32° Northeast 371 427 32,000 60 Climbing Washington Center
04:28PM 36.6486 -78.5044 31° Northeast 383 441 32,000  Level Washington Center
04:29PM 36.7506 -78.4253 32° Northeast 407 468 32,000  Level Washington Center
04:30PM 36.8547 -78.3486 30° Northeast 425 489 32,000  Level Washington Center
04:31PM 36.9586 -78.2667 32° Northeast 430 495 32,000  Level Washington Center
04:32PM 37.0731 -78.1819 31° Northeast 435 501 32,000  Level Washington Center
04:33PM 37.1603 -78.1144 32° Northeast 430 495 32,000  Level Washington Center
04:34PM 37.2642 -78.0344 31° Northeast 430 495 32,000 180 Level Washington Center
04:35PM 37.3636 -77.9567 32° Northeast 430 495 32,400 480 Climbing Washington Center
04:36PM 37.4675 -77.8761 32° Northeast 430 495 33,000 240 Climbing Washington Center
04:37PM 37.5711 -77.7928 33° Northeast 430 495 33,000  Level Washington Center
04:38PM 37.6708 -77.7011 36° Northeast 436 502 33,000  Level Washington Center
04:39PM 37.7706 -77.6094 36° Northeast 441 507 33,000  Level Washington Center
04:40PM 37.8719 -77.5175 36° Northeast 441 507 33,000  Level Washington Center
04:41PM 37.9714 -77.4278 35° Northeast 441 507 33,000  Level Washington Center
04:42PM 38.0689 -77.3378 36° Northeast 435 501 33,000  Level Washington Center
04:43PM 38.1661 -77.2475 36° Northeast 430 495 33,000  Level Washington Center
04:44PM 38.2653 -77.1519 37° Northeast 435 501 33,000  Level Washington Center
04:45PM 38.3622 -77.0667 35° Northeast 435 501 33,000  Level Washington Center
04:46PM 38.4614 -76.9731 36° Northeast 430 495 33,000  Level Washington Center
04:47PM 38.5583 -76.8819 36° Northeast 435 501 33,000  Level Washington Center
04:48PM 38.6550 -76.7906 36° Northeast 435 501 33,000  Level Washington Center
04:49PM 38.7500 -76.6911 39° Northeast 435 501 33,000  Level Washington Center
04:50PM 38.8425 -76.5858 42° Northeast 435 501 33,000  Level Washington Center
04:51PM 38.9331 -76.4831 41° Northeast 435 501 33,000 -300 Level Washington Center
04:52PM 39.0233 -76.3797 42° Northeast 435 501 32,500 -1,260 Descending Washington Center
04:53PM 39.1094 -76.2736 44° Northeast 430 495 30,600 -2,340 Descending Washington Center
04:54PM 39.1975 -76.1728 42° Northeast 425 489 27,800 -1,860 Descending Washington Center
04:55PM 39.2856 -76.0742 41° Northeast 425 489 26,900 -420 Descending Washington Center
04:56PM 39.3669 -75.9781 42° Northeast 410 472 27,000  Climbing Washington Center
04:57PM 39.4528 -75.8792 42° Northeast 405 466 27,000 -180 Level Washington Center
04:58PM 39.5383 -75.7800 42° Northeast 405 466 26,700 -1,320 Descending Washington Center
04:59PM 39.6281 -75.6697 43° Northeast 399 459 24,500 -2,400 Descending Washington Center
05:00PM 39.7072 -75.5753 43° Northeast 394 453 22,000 -2,220 Descending Washington Center
05:01PM 39.7864 -75.4781 43° Northeast 389 448 20,000 -1,920 Descending Washington Center
05:02PM 39.8633 -75.3861 43° Northeast 389 448 18,100 -2,040 Descending Washington Center
05:03PM 39.9381 -75.2992 42° Northeast 372 428 16,100 -2,040 Descending Washington Center
05:04PM 40.0067 -75.2122 44° Northeast 361 415 14,200 -1,680 Descending Washington Center
05:06PM 40.1500 -75.0333 44° Northeast 336 387 11,000 -1,440 Descending New York TRACON
05:07PM 40.2167 -74.9667 37° Northeast 302 348 9,800 -1,440 Descending New York TRACON
05:08PM 40.2667 -74.8833 52° Northeast 287 330 8,200 -1,140 Descending New York TRACON
05:09PM 40.3167 -74.8167 45° Northeast 276 318 7,600 -840 Descending New York TRACON
05:10PM 40.3667 -74.7333 52° Northeast 277 319 6,600 -840 Descending New York TRACON
05:11PM 40.4333 -74.6667 37° Northeast 277 319 6,000 -300 Descending New York TRACON
05:12PM 40.5000 -74.6500 11° North 259 298 6,000  Level New York TRACON
05:13PM 40.5667 -74.6333 11° North 261 300 6,000  Level New York TRACON
05:14PM 40.6500 -74.6167 North 260 299 6,000  Level New York TRACON
05:15PM 40.7167 -74.5833 21° North 262 302 6,000  Level New York TRACON
05:16PM 40.7833 -74.5667 11° North 268 308 6,000  Level New York TRACON
05:17PM 40.8500 -74.5500 11° North 265 305 6,000 -60 Level New York TRACON
05:18PM 40.9333 -74.5333 North 266 306 5,900 -480 Descending New York TRACON
05:19PM 41.0000 -74.5000 21° North 244 281 5,100 -480 Descending New York TRACON
05:20PM 41.0167 -74.4167 75° East 240 276 5,000 -60 Descending New York TRACON
05:21PM 40.9833 -74.3333 118° Southeast 243 280 5,000  Level New York TRACON
05:22PM 40.9333 -74.2667 135° Southeast 245 282 5,000 -60 Level New York TRACON
05:23PM 40.9000 -74.1833 118° Southeast 246 283 4,900 -720 Descending New York TRACON
05:24PM 40.8667 -74.1000 118° Southeast 238 274 3,600 -1,080 Descending New York TRACON
05:25PM 40.8167 -74.0833 166° South 208 239 2,800 -900 Descending New York TRACON